Time;durP1;ratioP1;P1;durP2;ratioP2;P2;SDS_P1;SDS_P2;PMS_P1;PMS_P2;Temp;Humidity;BMP_temperature;BMP_pressure;BME280_temperature;BME280_humidity;BME280_pressure;Samples;Min_cycle;Max_cycle;Signal;HPM_P1;HPM_P2
2023/08/21 00:00:00;;;;;;;7.00;2.97;;;;;;;;;;5054296;28;20037;-64
2023/08/21 00:02:27;;;;;;;7.47;3.30;;;;;;;;;;5072478;28;20048;-64
2023/08/21 00:04:53;;;;;;;9.40;2.67;;;;;;;;;;5072150;28;20068;-64
2023/08/21 00:07:20;;;;;;;5.75;2.80;;;;;;;;;;5072310;28;20116;-64
2023/08/21 00:09:46;;;;;;;8.15;3.30;;;;;;;;;;5072563;28;20051;-64
2023/08/21 00:12:12;;;;;;;9.25;3.17;;;;;;;;;;5071861;28;20044;-64
2023/08/21 00:14:38;;;;;;;7.63;2.92;;;;;;;;;;5072358;28;20052;-64
2023/08/21 00:17:04;;;;;;;7.22;3.35;;;;;;;;;;5072231;28;20079;-64
2023/08/21 00:19:30;;;;;;;5.57;2.95;;;;;;;;;;5071415;28;20048;-64
2023/08/21 00:21:56;;;;;;;7.57;2.72;;;;;;;;;;5071819;28;20135;-64
2023/08/21 00:24:22;;;;;;;6.03;3.08;;;;;;;;;;5071828;28;20179;-64
2023/08/21 00:26:48;;;;;;;4.20;2.25;;;;;;;;;;5087593;28;20043;-64
2023/08/21 00:29:14;;;;;;;5.13;2.10;;;;;;;;;;5091781;28;20055;-64
2023/08/21 00:31:40;;;;;;;4.63;2.08;;;;;;;;;;5091947;28;20059;-64
2023/08/21 00:34:06;;;;;;;2.97;2.00;;;;;;;;;;5091035;28;20486;-64
2023/08/21 00:36:32;;;;;;;3.65;2.20;;;;;;;;;;5091944;28;20036;-64
2023/08/21 00:38:58;;;;;;;3.70;2.30;;;;;;;;;;5091779;28;20110;-64
2023/08/21 00:41:24;;;;;;;3.58;2.55;;;;;;;;;;5091434;28;20068;-64
2023/08/21 00:43:50;;;;;;;5.45;2.55;;;;;;;;;;5091671;28;20321;-64
2023/08/21 00:46:17;;;;;;;3.65;2.00;;;;;;;;;;5091566;28;20040;-64
2023/08/21 00:48:43;;;;;;;4.22;2.22;;;;;;;;;;5088608;28;20040;-64
2023/08/21 00:51:09;;;;;;;3.75;2.00;;;;;;;;;;5071149;28;20461;-64
2023/08/21 00:53:35;;;;;;;3.75;2.35;;;;;;;;;;5071461;28;20487;-64
2023/08/21 00:56:02;;;;;;;5.88;2.60;;;;;;;;;;5071161;28;20147;-64
2023/08/21 00:58:28;;;;;;;4.95;2.75;;;;;;;;;;5070757;28;20047;-64
2023/08/21 01:00:54;;;;;;;4.82;2.22;;;;;;;;;;5070931;28;20036;-64
2023/08/21 01:03:20;;;;;;;4.60;2.50;;;;;;;;;;5069977;28;20060;-64
2023/08/21 01:05:46;;;;;;;4.35;2.70;;;;;;;;;;5070838;28;20507;-64
2023/08/21 01:08:17;;;;;;;3.58;2.70;;;;;;;;;;5070935;28;20070;-64
2023/08/21 01:10:48;;;;;;;3.10;2.55;;;;;;;;;;5071102;28;20036;-64
2023/08/21 01:13:23;;;;;;;3.20;2.45;;;;;;;;;;5070758;28;20044;-64
2023/08/21 01:15:51;;;;;;;3.70;2.00;;;;;;;;;;5070122;28;20042;-64
2023/08/21 01:18:17;;;;;;;5.80;2.30;;;;;;;;;;5070773;28;20040;-64
2023/08/21 01:20:44;;;;;;;5.80;2.17;;;;;;;;;;5070351;28;20098;-64
2023/08/21 01:23:10;;;;;;;4.90;2.45;;;;;;;;;;5070978;28;20049;-64
2023/08/21 01:25:37;;;;;;;3.33;2.40;;;;;;;;;;5076822;28;20044;-64
2023/08/21 01:28:03;;;;;;;3.17;2.30;;;;;;;;;;5089396;28;20064;-64
2023/08/21 01:30:32;;;;;;;4.00;2.63;;;;;;;;;;5090745;28;20438;-64
2023/08/21 01:33:00;;;;;;;5.88;2.60;;;;;;;;;;5091010;28;20043;-64
2023/08/21 01:35:27;;;;;;;5.07;2.20;;;;;;;;;;5089257;28;20071;-64
2023/08/21 01:37:53;;;;;;;5.00;2.75;;;;;;;;;;5090799;28;20040;-64
2023/08/21 01:40:22;;;;;;;3.83;2.35;;;;;;;;;;5090750;28;20158;-64
2023/08/21 01:42:48;;;;;;;4.65;2.60;;;;;;;;;;5090404;28;20051;-64
2023/08/21 01:45:14;;;;;;;4.13;3.03;;;;;;;;;;5090031;28;20036;-64
2023/08/21 01:47:40;;;;;;;3.67;2.90;;;;;;;;;;5090738;28;20058;-64
2023/08/21 01:50:06;;;;;;;5.82;2.95;;;;;;;;;;5075843;28;20040;-64
2023/08/21 01:52:32;;;;;;;4.40;2.75;;;;;;;;;;5070530;28;20032;-64
2023/08/21 01:54:58;;;;;;;3.92;2.80;;;;;;;;;;5069021;28;20074;-64
2023/08/21 01:57:24;;;;;;;7.18;2.88;;;;;;;;;;5070300;28;20048;-64
2023/08/21 01:59:50;;;;;;;5.40;2.80;;;;;;;;;;5070263;28;20060;-64
2023/08/21 02:02:16;;;;;;;4.25;2.42;;;;;;;;;;5068886;28;20049;-64
2023/08/21 02:04:42;;;;;;;5.18;2.90;;;;;;;;;;5069946;28;20037;-64
2023/08/21 02:07:08;;;;;;;4.20;2.67;;;;;;;;;;5070369;28;20043;-64
2023/08/21 02:09:34;;;;;;;3.45;2.42;;;;;;;;;;5069917;28;20041;-64
2023/08/21 02:12:00;;;;;;;4.25;2.50;;;;;;;;;;5068487;28;20052;-64
2023/08/21 02:14:26;;;;;;;2.67;2.13;;;;;;;;;;5068728;28;20110;-64
2023/08/21 02:16:52;;;;;;;3.92;2.20;;;;;;;;;;5070347;28;20471;-64
2023/08/21 02:19:18;;;;;;;2.55;1.80;;;;;;;;;;5069787;28;20465;-64
2023/08/21 02:21:44;;;;;;;5.05;1.90;;;;;;;;;;5069899;28;20055;-64
2023/08/21 02:24:10;;;;;;;2.47;1.88;;;;;;;;;;5070305;28;20498;-64
2023/08/21 02:26:36;;;;;;;8.40;2.47;;;;;;;;;;5084147;28;20472;-64
2023/08/21 02:29:03;;;;;;;4.28;2.50;;;;;;;;;;5090097;28;20048;-64
2023/08/21 02:31:29;;;;;;;3.92;2.15;;;;;;;;;;5090433;28;20044;-64
2023/08/21 02:33:55;;;;;;;4.13;2.03;;;;;;;;;;5089681;28;20131;-64
2023/08/21 02:36:21;;;;;;;3.45;2.17;;;;;;;;;;5089140;28;20048;-64
2023/08/21 02:38:47;;;;;;;4.25;2.20;;;;;;;;;;5090254;28;20040;-64
2023/08/21 02:41:13;;;;;;;5.00;2.35;;;;;;;;;;5089866;28;20036;-64
2023/08/21 02:43:39;;;;;;;3.40;2.22;;;;;;;;;;5089861;28;20040;-64
2023/08/21 02:46:05;;;;;;;6.00;2.72;;;;;;;;;;5090433;28;20096;-64
2023/08/21 02:48:31;;;;;;;7.35;2.50;;;;;;;;;;5088719;28;20483;-64
2023/08/21 02:50:57;;;;;;;3.97;2.13;;;;;;;;;;5069974;28;20445;-64
2023/08/21 02:53:23;;;;;;;3.67;2.47;;;;;;;;;;5070179;28;20146;-64
2023/08/21 02:55:49;;;;;;;3.10;2.15;;;;;;;;;;5069557;28;20098;-64
2023/08/21 02:58:15;;;;;;;5.78;2.25;;;;;;;;;;5072322;28;20044;-64
2023/08/21 03:00:41;;;;;;;4.80;2.20;;;;;;;;;;5073343;28;20071;-64
2023/08/21 03:03:07;;;;;;;3.70;2.30;;;;;;;;;;5073248;28;20491;-64
2023/08/21 03:05:33;;;;;;;2.97;2.25;;;;;;;;;;5072315;28;20033;-64
2023/08/21 03:07:59;;;;;;;6.55;2.40;;;;;;;;;;5073257;28;20194;-64
2023/08/21 03:10:26;;;;;;;4.30;2.08;;;;;;;;;;5072828;28;20041;-64
2023/08/21 03:12:52;;;;;;;3.10;2.25;;;;;;;;;;5073443;28;20499;-64
2023/08/21 03:15:18;;;;;;;5.00;2.22;;;;;;;;;;5073325;28;20048;-64
2023/08/21 03:17:44;;;;;;;3.95;2.00;;;;;;;;;;5072824;28;20063;-64
2023/08/21 03:20:10;;;;;;;3.60;2.20;;;;;;;;;;5073180;28;20033;-64
2023/08/21 03:22:36;;;;;;;3.28;2.63;;;;;;;;;;5072809;28;20051;-64
2023/08/21 03:25:02;;;;;;;3.13;2.13;;;;;;;;;;5074044;28;20041;-64
2023/08/21 03:27:29;;;;;;;2.63;2.10;;;;;;;;;;5093114;28;20103;-64
2023/08/21 03:29:55;;;;;;;3.65;2.30;;;;;;;;;;5093291;28;20056;-64
2023/08/21 03:32:21;;;;;;;4.60;2.50;;;;;;;;;;5093167;28;20036;-64
2023/08/21 03:34:47;;;;;;;5.72;2.08;;;;;;;;;;5092781;28;20640;-64
2023/08/21 03:37:13;;;;;;;4.00;2.10;;;;;;;;;;5092055;28;20032;-64
2023/08/21 03:39:39;;;;;;;3.40;2.17;;;;;;;;;;5091171;28;20075;-64
2023/08/21 03:42:05;;;;;;;2.97;1.98;;;;;;;;;;5093016;28;20040;-64
2023/08/21 03:44:31;;;;;;;3.35;2.25;;;;;;;;;;5093309;28;20040;-64
2023/08/21 03:46:57;;;;;;;2.72;1.88;;;;;;;;;;5092605;28;20044;-64
2023/08/21 03:49:23;;;;;;;2.60;2.20;;;;;;;;;;5083241;28;20402;-64
2023/08/21 03:51:49;;;;;;;3.38;1.98;;;;;;;;;;5072535;28;20041;-64
2023/08/21 03:54:15;;;;;;;3.58;2.00;;;;;;;;;;5072206;28;20127;-64
2023/08/21 03:56:41;;;;;;;4.50;1.95;;;;;;;;;;5072577;28;20413;-64
2023/08/21 03:59:06;;;;;;;3.30;2.13;;;;;;;;;;5072509;28;20091;-64
2023/08/21 04:01:32;;;;;;;5.68;2.35;;;;;;;;;;5071845;28;20048;-64
2023/08/21 04:03:58;;;;;;;4.85;1.77;;;;;;;;;;5072554;28;20047;-64
2023/08/21 04:06:25;;;;;;;3.20;1.75;;;;;;;;;;5071038;28;20044;-64
2023/08/21 04:08:51;;;;;;;2.63;2.00;;;;;;;;;;5071045;28;20044;-64
2023/08/21 04:11:17;;;;;;;3.17;1.88;;;;;;;;;;5072155;28;20115;-64
2023/08/21 04:13:43;;;;;;;5.07;2.13;;;;;;;;;;5072084;28;20129;-64
2023/08/21 04:16:10;;;;;;;4.13;2.15;;;;;;;;;;5071781;28;20083;-64
2023/08/21 04:18:38;;;;;;;3.35;2.17;;;;;;;;;;5072168;28;20041;-64
2023/08/21 04:21:04;;;;;;;2.95;2.53;;;;;;;;;;5072932;28;20040;-64
2023/08/21 04:23:30;;;;;;;3.38;2.40;;;;;;;;;;5072910;28;20047;-64
2023/08/21 04:26:03;;;;;;;6.97;2.65;;;;;;;;;;5081858;28;20065;-64
2023/08/21 04:28:30;;;;;;;5.35;2.53;;;;;;;;;;5093103;28;20055;-64
2023/08/21 04:30:57;;;;;;;4.70;2.55;;;;;;;;;;5092894;28;20052;-64
2023/08/21 04:33:24;;;;;;;4.72;2.60;;;;;;;;;;5093327;28;20059;-64
2023/08/21 04:35:50;;;;;;;4.85;2.20;;;;;;;;;;5093281;28;20058;-64
2023/08/21 04:38:16;;;;;;;5.70;2.30;;;;;;;;;;5091636;28;20147;-64
2023/08/21 04:40:42;;;;;;;2.38;1.92;;;;;;;;;;5092742;28;20132;-64
2023/08/21 04:43:08;;;;;;;2.28;2.05;;;;;;;;;;5092809;28;20040;-64
2023/08/21 04:45:37;;;;;;;3.08;2.42;;;;;;;;;;5092578;28;20425;-64
2023/08/21 04:48:03;;;;;;;3.40;2.30;;;;;;;;;;5092895;28;20044;-64
2023/08/21 04:50:29;;;;;;;6.18;3.22;;;;;;;;;;5074946;28;20036;-64
2023/08/21 04:52:55;;;;;;;4.32;2.20;;;;;;;;;;5072635;28;20094;-64
2023/08/21 04:55:21;;;;;;;5.05;2.53;;;;;;;;;;5072156;28;20044;-64
2023/08/21 04:57:47;;;;;;;5.68;2.20;;;;;;;;;;5072516;28;20127;-64
2023/08/21 05:00:16;;;;;;;3.28;2.53;;;;;;;;;;5072297;28;20438;-64
2023/08/21 05:02:42;;;;;;;2.85;2.05;;;;;;;;;;5071838;28;20040;-64
2023/08/21 05:05:08;;;;;;;3.95;2.13;;;;;;;;;;5071436;28;20540;-64
2023/08/21 05:07:35;;;;;;;3.67;2.28;;;;;;;;;;5072440;28;20071;-64
2023/08/21 05:10:01;;;;;;;4.03;2.30;;;;;;;;;;5070701;28;20048;-64
2023/08/21 05:12:27;;;;;;;3.65;2.70;;;;;;;;;;5072047;28;20047;-64
2023/08/21 05:14:54;;;;;;;3.63;2.70;;;;;;;;;;5072313;28;20192;-64
2023/08/21 05:17:20;;;;;;;4.32;3.03;;;;;;;;;;5071750;28;20121;-64
2023/08/21 05:19:46;;;;;;;4.50;2.80;;;;;;;;;;5071861;28;20094;-64
2023/08/21 05:22:12;;;;;;;5.32;3.30;;;;;;;;;;5072040;28;20455;-64
2023/08/21 05:24:38;;;;;;;4.05;2.75;;;;;;;;;;5070475;28;20540;-64
2023/08/21 05:27:04;;;;;;;4.80;3.05;;;;;;;;;;5090282;28;20048;-64
2023/08/21 05:29:30;;;;;;;5.03;2.42;;;;;;;;;;5091898;28;20060;-64
2023/08/21 05:31:57;;;;;;;3.00;2.60;;;;;;;;;;5091401;28;20084;-64
2023/08/21 05:34:25;;;;;;;3.85;2.33;;;;;;;;;;5091661;28;20047;-64
2023/08/21 05:36:51;;;;;;;4.28;2.83;;;;;;;;;;5090307;28;20040;-64
2023/08/21 05:39:19;;;;;;;5.80;3.05;;;;;;;;;;5091113;28;20040;-63
2023/08/21 05:41:45;;;;;;;4.78;2.90;;;;;;;;;;5091897;28;20500;-63
2023/08/21 05:44:11;;;;;;;5.22;2.45;;;;;;;;;;5092090;28;20040;-64
2023/08/21 05:46:38;;;;;;;3.20;2.30;;;;;;;;;;5091620;28;20032;-64
2023/08/21 05:49:04;;;;;;;4.60;2.78;;;;;;;;;;5086350;28;20090;-64
2023/08/21 05:51:30;;;;;;;5.47;2.88;;;;;;;;;;5071660;28;20048;-64
2023/08/21 05:53:56;;;;;;;4.15;2.70;;;;;;;;;;5071251;28;20052;-64
2023/08/21 05:56:23;;;;;;;4.30;2.70;;;;;;;;;;5071628;28;20044;-64
2023/08/21 05:58:49;;;;;;;5.68;2.70;;;;;;;;;;5071461;28;20398;-64
2023/08/21 06:01:15;;;;;;;7.82;3.10;;;;;;;;;;5071052;28;20470;-64
2023/08/21 06:03:41;;;;;;;3.88;2.70;;;;;;;;;;5071794;28;20082;-64
2023/08/21 06:06:07;;;;;;;5.72;3.42;;;;;;;;;;5070109;28;20116;-64
2023/08/21 06:08:33;;;;;;;4.90;3.53;;;;;;;;;;5071268;28;20387;-64
2023/08/21 06:10:59;;;;;;;5.43;3.40;;;;;;;;;;5071481;28;20066;-64
2023/08/21 06:13:26;;;;;;;6.72;3.35;;;;;;;;;;5071572;28;20052;-64
2023/08/21 06:15:53;;;;;;;6.80;3.55;;;;;;;;;;5069890;28;20100;-64
2023/08/21 06:18:19;;;;;;;7.70;4.25;;;;;;;;;;5071427;28;20371;-64
2023/08/21 06:20:45;;;;;;;5.45;3.35;;;;;;;;;;5071305;28;20033;-64
2023/08/21 06:23:11;;;;;;;5.10;3.55;;;;;;;;;;5071171;28;20037;-64
2023/08/21 06:25:37;;;;;;;6.70;3.63;;;;;;;;;;5077483;28;20378;-64
2023/08/21 06:28:04;;;;;;;7.38;3.30;;;;;;;;;;5090923;28;20052;-64
2023/08/21 06:30:30;;;;;;;5.68;3.42;;;;;;;;;;5090135;28;20069;-64
2023/08/21 06:32:56;;;;;;;9.98;3.90;;;;;;;;;;5094715;28;20127;-64
2023/08/21 06:35:23;;;;;;;10.20;3.90;;;;;;;;;;5094961;28;20094;-64
2023/08/21 06:37:49;;;;;;;6.63;3.45;;;;;;;;;;5094885;28;20046;-63
2023/08/21 06:40:15;;;;;;;6.05;3.70;;;;;;;;;;5095389;28;20121;-63
2023/08/21 06:42:41;;;;;;;6.35;3.20;;;;;;;;;;5093861;28;20044;-63
2023/08/21 06:45:07;;;;;;;9.95;4.50;;;;;;;;;;5094891;28;20051;-63
2023/08/21 06:47:33;;;;;;;9.23;3.85;;;;;;;;;;5090532;28;20390;-63
2023/08/21 06:50:00;;;;;;;7.47;3.45;;;;;;;;;;5093833;28;20050;-64
2023/08/21 06:52:26;;;;;;;10.55;4.30;;;;;;;;;;5094344;28;20048;-63
2023/08/21 06:54:52;;;;;;;9.77;4.57;;;;;;;;;;5094798;28;20040;-63
2023/08/21 06:57:18;;;;;;;7.38;4.53;;;;;;;;;;5094443;28;20047;-63
2023/08/21 06:59:44;;;;;;;7.85;3.58;;;;;;;;;;5093898;28;20367;-63
2023/08/21 07:02:10;;;;;;;13.75;3.75;;;;;;;;;;5094321;28;20043;-63
2023/08/21 07:04:36;;;;;;;9.60;3.53;;;;;;;;;;5094270;28;20122;-63
2023/08/21 07:07:02;;;;;;;5.93;3.55;;;;;;;;;;5093700;28;20167;-63
2023/08/21 07:09:28;;;;;;;8.80;3.90;;;;;;;;;;5094549;28;20040;-63
2023/08/21 07:11:55;;;;;;;6.75;3.30;;;;;;;;;;5093826;28;20090;-63
2023/08/21 07:14:21;;;;;;;12.43;4.25;;;;;;;;;;5093556;28;20122;-64
2023/08/21 07:16:47;;;;;;;9.48;3.42;;;;;;;;;;5092742;28;20462;-64
2023/08/21 07:19:13;;;;;;;9.10;3.65;;;;;;;;;;5092449;28;20039;-63
2023/08/21 07:21:39;;;;;;;9.00;3.70;;;;;;;;;;5093458;28;20410;-63
2023/08/21 07:24:05;;;;;;;16.08;5.13;;;;;;;;;;5093829;28;20044;-62
2023/08/21 07:26:31;;;;;;;8.68;3.72;;;;;;;;;;5092601;28;20039;-62
2023/08/21 07:28:58;;;;;;;12.07;3.78;;;;;;;;;;5092921;28;20048;-62
2023/08/21 07:31:24;;;;;;;5.93;3.13;;;;;;;;;;5093694;28;20047;-63
2023/08/21 07:33:50;;;;;;;13.95;3.40;;;;;;;;;;5092655;28;20096;-62
2023/08/21 07:36:19;;;;;;;6.63;3.10;;;;;;;;;;5092149;28;20043;-62
2023/08/21 07:38:45;;;;;;;9.40;2.95;;;;;;;;;;5092569;28;20040;-62
2023/08/21 07:41:11;;;;;;;8.68;2.08;;;;;;;;;;5092261;28;20043;-62
2023/08/21 07:43:38;;;;;;;7.18;2.10;;;;;;;;;;5090821;28;20482;-62
2023/08/21 07:46:05;;;;;;;6.45;2.10;;;;;;;;;;5092324;28;20475;-62
2023/08/21 07:48:31;;;;;;;7.07;2.13;;;;;;;;;;5091671;28;20031;-62
2023/08/21 07:50:57;;;;;;;7.03;1.92;;;;;;;;;;5091392;28;20122;-62
2023/08/21 07:53:23;;;;;;;6.53;1.50;;;;;;;;;;5092279;28;20047;-63
2023/08/21 07:55:49;;;;;;;8.98;2.00;;;;;;;;;;5092314;28;20039;-63
2023/08/21 07:58:15;;;;;;;5.78;1.60;;;;;;;;;;5091532;28;20462;-63
2023/08/21 08:00:44;;;;;;;5.03;1.60;;;;;;;;;;5091935;28;20032;-63
2023/08/21 08:03:11;;;;;;;6.75;1.80;;;;;;;;;;5091671;28;20128;-63
2023/08/21 08:05:38;;;;;;;4.53;1.52;;;;;;;;;;5091124;28;20063;-62
2023/08/21 08:08:04;;;;;;;7.30;1.65;;;;;;;;;;5091445;28;20094;-63
2023/08/21 08:10:30;;;;;;;4.90;1.75;;;;;;;;;;5092010;28;20036;-63
2023/08/21 08:12:56;;;;;;;5.43;1.60;;;;;;;;;;5091495;28;20441;-62
2023/08/21 08:15:23;;;;;;;6.35;1.63;;;;;;;;;;5091436;28;20214;-63
2023/08/21 08:17:53;;;;;;;2.80;1.58;;;;;;;;;;5091565;28;20093;-62
2023/08/21 08:20:19;;;;;;;7.15;1.80;;;;;;;;;;5090827;28;20044;-63
2023/08/21 08:22:45;;;;;;;6.00;1.90;;;;;;;;;;5091696;28;20066;-62
2023/08/21 08:25:11;;;;;;;8.93;1.65;;;;;;;;;;5090388;28;20055;-63
2023/08/21 08:27:37;;;;;;;5.10;1.70;;;;;;;;;;5090894;28;20052;-62
2023/08/21 08:30:04;;;;;;;5.45;1.70;;;;;;;;;;5091004;28;20425;-63
2023/08/21 08:32:30;;;;;;;4.30;1.40;;;;;;;;;;5091742;28;20079;-62
2023/08/21 08:34:56;;;;;;;5.32;1.50;;;;;;;;;;5091610;28;20113;-62
2023/08/21 08:37:22;;;;;;;2.95;1.23;;;;;;;;;;5088461;28;20047;-62
2023/08/21 08:39:48;;;;;;;8.10;2.08;;;;;;;;;;5085794;28;20044;-62
2023/08/21 08:42:15;;;;;;;3.33;1.15;;;;;;;;;;5090494;28;20047;-62
2023/08/21 08:44:42;;;;;;;5.00;1.50;;;;;;;;;;5091947;28;20277;-62
2023/08/21 08:47:11;;;;;;;5.75;1.60;;;;;;;;;;5091973;28;20478;-62
2023/08/21 08:49:38;;;;;;;4.22;1.52;;;;;;;;;;5091629;28;20040;-62
2023/08/21 08:52:04;;;;;;;5.40;1.50;;;;;;;;;;5091138;28;20051;-62
2023/08/21 08:54:31;;;;;;;6.22;1.83;;;;;;;;;;5091628;28;20063;-63
2023/08/21 08:56:57;;;;;;;6.28;1.50;;;;;;;;;;5092227;28;20071;-63
2023/08/21 08:59:23;;;;;;;4.88;1.30;;;;;;;;;;5091562;28;20044;-63
2023/08/21 09:01:49;;;;;;;5.28;1.55;;;;;;;;;;5091897;28;20036;-62
2023/08/21 09:04:15;;;;;;;6.70;1.90;;;;;;;;;;5091923;28;20036;-62
2023/08/21 09:06:41;;;;;;;4.60;1.20;;;;;;;;;;5091570;28;20488;-62
2023/08/21 09:09:10;;;;;;;7.03;1.60;;;;;;;;;;5092005;28;20130;-62
2023/08/21 09:11:36;;;;;;;8.20;1.77;;;;;;;;;;5091763;28;20561;-62
2023/08/21 09:14:02;;;;;;;6.57;1.80;;;;;;;;;;5091762;28;20052;-63
2023/08/21 09:16:28;;;;;;;6.65;1.55;;;;;;;;;;5091629;28;20048;-63
2023/08/21 09:18:59;;;;;;;10.23;2.03;;;;;;;;;;5091617;28;20126;-63
2023/08/21 09:21:27;;;;;;;5.05;1.63;;;;;;;;;;5090326;28;20072;-63
2023/08/21 09:23:59;;;;;;;4.40;1.30;;;;;;;;;;5091599;28;20521;-63
2023/08/21 09:26:26;;;;;;;5.32;1.30;;;;;;;;;;5091371;28;20065;-63
2023/08/21 09:28:53;;;;;;;2.42;1.15;;;;;;;;;;5090881;28;20052;-63
2023/08/21 09:31:32;;;;;;;6.20;1.33;;;;;;;;;;5091683;28;20474;-66
2023/08/21 09:34:00;;;;;;;4.43;1.40;;;;;;;;;;5090895;28;20047;-66
2023/08/21 09:36:28;;;;;;;3.80;1.38;;;;;;;;;;5089460;28;20048;-66
2023/08/21 09:38:55;;;;;;;3.40;1.25;;;;;;;;;;5091592;28;20105;-65
2023/08/21 09:41:21;;;;;;;4.85;1.63;;;;;;;;;;5091431;28;20072;-65
2023/08/21 09:43:47;;;;;;;5.28;1.20;;;;;;;;;;5090989;28;20044;-66
2023/08/21 09:46:17;;;;;;;3.95;1.15;;;;;;;;;;5091374;28;20036;-66
2023/08/21 09:48:45;;;;;;;2.03;1.00;;;;;;;;;;5091168;28;20115;-66
2023/08/21 09:51:11;;;;;;;5.70;1.40;;;;;;;;;;5091071;28;20101;-64
2023/08/21 09:53:39;;;;;;;5.85;1.52;;;;;;;;;;5089846;28;20516;-65
2023/08/21 09:56:08;;;;;;;4.07;1.27;;;;;;;;;;5090249;28;20047;-65
2023/08/21 09:58:35;;;;;;;5.57;1.63;;;;;;;;;;5090376;28;20047;-65
2023/08/21 10:01:08;;;;;;;4.78;1.45;;;;;;;;;;5090657;28;20040;-65
2023/08/21 10:03:35;;;;;;;3.85;1.13;;;;;;;;;;5090708;28;20071;-65
2023/08/21 10:06:02;;;;;;;5.28;1.70;;;;;;;;;;5089967;28;20039;-65
2023/08/21 10:08:29;;;;;;;4.90;1.10;;;;;;;;;;5090997;28;20042;-66
2023/08/21 10:10:55;;;;;;;3.70;1.00;;;;;;;;;;5090852;28;20036;-66
2023/08/21 10:13:21;;;;;;;3.28;1.45;;;;;;;;;;5090032;28;20071;-65
2023/08/21 10:15:48;;;;;;;2.25;0.90;;;;;;;;;;5090981;28;20036;-65
2023/08/21 10:18:21;;;;;;;4.95;1.52;;;;;;;;;;5091102;28;20482;-66
2023/08/21 10:20:47;;;;;;;2.60;1.20;;;;;;;;;;5090014;28;20052;-66
2023/08/21 10:23:33;;;;;;;4.00;1.48;;;;;;;;;;5090946;28;20081;-66
2023/08/21 10:26:00;;;;;;;4.40;1.13;;;;;;;;;;5081213;28;20036;-66
2023/08/21 10:28:41;;;;;;;3.30;1.27;;;;;;;;;;5086682;28;20074;-66
2023/08/21 10:31:26;;;;;;;2.33;1.20;;;;;;;;;;5089225;28;20092;-65
2023/08/21 10:33:52;;;;;;;3.58;1.02;;;;;;;;;;5090260;28;20040;-65
2023/08/21 10:36:39;;;;;;;2.58;1.20;;;;;;;;;;5090140;28;20059;-65
2023/08/21 10:39:13;;;;;;;6.82;1.60;;;;;;;;;;5075188;28;20032;-65
2023/08/21 10:41:38;;;;;;;3.15;1.15;;;;;;;;;;5090109;28;20040;-65
2023/08/21 10:44:06;;;;;;;2.53;1.20;;;;;;;;;;5090835;28;20452;-65
2023/08/21 10:46:50;;;;;;;4.85;1.30;;;;;;;;;;5090619;28;20102;-65
2023/08/21 10:49:16;;;;;;;2.65;1.05;;;;;;;;;;5089841;28;20032;-65
2023/08/21 10:51:44;;;;;;;5.55;1.27;;;;;;;;;;5090339;28;20565;-65
2023/08/21 10:54:16;;;;;;;4.13;1.23;;;;;;;;;;5090179;28;20036;-66
2023/08/21 10:56:42;;;;;;;3.50;1.15;;;;;;;;;;5088737;28;20483;-66
2023/08/21 10:59:09;;;;;;;5.70;1.50;;;;;;;;;;5090302;28;20040;-65
2023/08/21 11:01:45;;;;;;;5.95;1.73;;;;;;;;;;5090281;28;20123;-65
2023/08/21 11:04:14;;;;;;;3.22;1.33;;;;;;;;;;5089940;28;20523;-65
2023/08/21 11:06:40;;;;;;;4.60;1.50;;;;;;;;;;5090224;28;20515;-65
2023/08/21 11:09:12;;;;;;;3.88;1.48;;;;;;;;;;5090472;28;20068;-66
2023/08/21 11:11:38;;;;;;;4.18;1.13;;;;;;;;;;5089767;28;20051;-65
2023/08/21 11:14:04;;;;;;;4.53;1.35;;;;;;;;;;5090283;28;20427;-65
2023/08/21 11:16:30;;;;;;;2.85;1.20;;;;;;;;;;5089093;28;20047;-65
2023/08/21 11:18:56;;;;;;;5.15;1.60;;;;;;;;;;5092701;28;20048;-63
2023/08/21 11:21:25;;;;;;;5.82;1.50;;;;;;;;;;5094013;28;20047;-63
2023/08/21 11:23:51;;;;;;;6.43;1.63;;;;;;;;;;5093015;28;20043;-63
2023/08/21 11:26:17;;;;;;;4.03;1.35;;;;;;;;;;5093371;28;20036;-63
2023/08/21 11:28:43;;;;;;;2.60;1.05;;;;;;;;;;5093684;28;20047;-63
2023/08/21 11:31:10;;;;;;;5.15;1.50;;;;;;;;;;5093767;28;20051;-62
2023/08/21 11:33:39;;;;;;;2.85;1.40;;;;;;;;;;5093545;28;20078;-62
2023/08/21 11:36:05;;;;;;;6.15;1.15;;;;;;;;;;5093717;28;20048;-62
2023/08/21 11:38:31;;;;;;;2.40;1.15;;;;;;;;;;5093605;28;20067;-62
2023/08/21 11:41:01;;;;;;;6.43;1.70;;;;;;;;;;5092856;28;20039;-63
2023/08/21 11:43:37;;;;;;;3.30;1.20;;;;;;;;;;5093707;28;20716;-62
2023/08/21 11:46:04;;;;;;;3.92;1.30;;;;;;;;;;5093640;28;20503;-63
2023/08/21 11:48:30;;;;;;;4.38;1.58;;;;;;;;;;5093270;28;20448;-63
2023/08/21 11:50:56;;;;;;;4.00;1.38;;;;;;;;;;5093256;28;20032;-63
2023/08/21 11:53:31;;;;;;;6.90;1.70;;;;;;;;;;5093643;28;20445;-64
2023/08/21 11:55:57;;;;;;;4.63;1.60;;;;;;;;;;5092983;28;20032;-63
2023/08/21 11:58:24;;;;;;;5.82;1.48;;;;;;;;;;5093559;28;20170;-63
2023/08/21 12:00:50;;;;;;;3.85;1.52;;;;;;;;;;5092825;28;20105;-63
2023/08/21 12:03:19;;;;;;;4.95;1.10;;;;;;;;;;5093048;28;20052;-63
2023/08/21 12:05:45;;;;;;;7.97;2.22;;;;;;;;;;5093145;28;20055;-63
2023/08/21 12:08:11;;;;;;;3.45;1.02;;;;;;;;;;5093175;28;20086;-63
2023/08/21 12:10:37;;;;;;;2.03;1.00;;;;;;;;;;5092569;28;20044;-62
2023/08/21 12:13:03;;;;;;;6.00;1.10;;;;;;;;;;5092904;28;20487;-63
2023/08/21 12:15:29;;;;;;;2.72;0.90;;;;;;;;;;5093039;28;20040;-63
2023/08/21 12:17:55;;;;;;;4.53;1.13;;;;;;;;;;5092906;28;20035;-63
2023/08/21 12:20:21;;;;;;;4.22;0.80;;;;;;;;;;5092646;28;20043;-63
2023/08/21 12:22:47;;;;;;;4.28;1.20;;;;;;;;;;5092686;28;20048;-63
2023/08/21 12:25:14;;;;;;;8.02;1.35;;;;;;;;;;5092525;28;20078;-62
2023/08/21 12:27:40;;;;;;;8.52;1.10;;;;;;;;;;5092105;28;20048;-64
2023/08/21 12:30:06;;;;;;;4.43;1.38;;;;;;;;;;5091901;28;20051;-64
2023/08/21 12:32:32;;;;;;;3.30;0.82;;;;;;;;;;5092213;28;20090;-63
2023/08/21 12:34:58;;;;;;;3.95;1.17;;;;;;;;;;5092091;28;20558;-63
2023/08/21 12:37:25;;;;;;;1.98;1.25;;;;;;;;;;5092341;28;20036;-62
2023/08/21 12:39:51;;;;;;;2.58;1.02;;;;;;;;;;5092001;28;20088;-64
2023/08/21 12:42:17;;;;;;;4.18;0.90;;;;;;;;;;5092555;28;20040;-63
2023/08/21 12:44:43;;;;;;;3.38;1.00;;;;;;;;;;5092236;28;20119;-63
2023/08/21 12:47:09;;;;;;;5.47;1.10;;;;;;;;;;5091310;28;20040;-65
2023/08/21 12:49:35;;;;;;;3.72;1.10;;;;;;;;;;5090525;28;20119;-64
2023/08/21 12:52:03;;;;;;;4.30;0.80;;;;;;;;;;5092376;28;20040;-64
2023/08/21 12:54:29;;;;;;;4.93;0.80;;;;;;;;;;5092020;28;20040;-64
2023/08/21 12:56:56;;;;;;;4.45;0.93;;;;;;;;;;5092255;28;20123;-64
2023/08/21 12:59:22;;;;;;;3.50;0.80;;;;;;;;;;5092519;28;20044;-64
2023/08/21 13:01:48;;;;;;;4.90;0.88;;;;;;;;;;5091561;28;20043;-64
2023/08/21 13:04:14;;;;;;;2.50;0.57;;;;;;;;;;5092335;28;20036;-64
2023/08/21 13:06:41;;;;;;;3.80;0.60;;;;;;;;;;5091549;28;20040;-64
2023/08/21 13:09:07;;;;;;;2.80;0.57;;;;;;;;;;5091197;28;20044;-63
2023/08/21 13:11:33;;;;;;;2.35;0.63;;;;;;;;;;5092108;28;20540;-64
2023/08/21 13:13:59;;;;;;;4.97;0.88;;;;;;;;;;5092083;28;20048;-64
2023/08/21 13:16:25;;;;;;;1.10;0.35;;;;;;;;;;5091739;28;20047;-64
2023/08/21 13:18:52;;;;;;;6.65;0.90;;;;;;;;;;5091979;28;20098;-64
2023/08/21 13:21:18;;;;;;;4.55;0.60;;;;;;;;;;5091186;28;21947;-63
2023/08/21 13:23:44;;;;;;;2.38;0.70;;;;;;;;;;5091134;28;20032;-64
2023/08/21 13:26:10;;;;;;;6.43;1.08;;;;;;;;;;5091848;28;20043;-64
2023/08/21 13:28:36;;;;;;;4.07;0.90;;;;;;;;;;5091229;28;20148;-64
2023/08/21 13:31:02;;;;;;;4.47;0.98;;;;;;;;;;5073118;28;20083;-64
2023/08/21 13:33:28;;;;;;;2.13;0.50;;;;;;;;;;5091427;28;20036;-63
2023/08/21 13:35:54;;;;;;;3.85;0.82;;;;;;;;;;5091558;28;20405;-63
2023/08/21 13:38:20;;;;;;;2.13;0.80;;;;;;;;;;5091257;28;20032;-63
2023/08/21 13:40:47;;;;;;;3.42;0.93;;;;;;;;;;5090818;28;20051;-63
2023/08/21 13:43:13;;;;;;;4.53;1.13;;;;;;;;;;5091321;28;20378;-64
2023/08/21 13:45:39;;;;;;;2.80;0.80;;;;;;;;;;5091551;28;20040;-64
2023/08/21 13:48:06;;;;;;;3.83;0.80;;;;;;;;;;5091238;28;20044;-64
2023/08/21 13:50:32;;;;;;;4.95;0.88;;;;;;;;;;5091413;28;20028;-64
2023/08/21 13:52:58;;;;;;;2.03;0.73;;;;;;;;;;5089926;28;20048;-64
2023/08/21 13:55:24;;;;;;;3.20;0.98;;;;;;;;;;5089586;28;20051;-64
2023/08/21 13:57:50;;;;;;;3.58;0.85;;;;;;;;;;5091348;28;20055;-64
2023/08/21 14:00:17;;;;;;;2.33;1.08;;;;;;;;;;5091277;28;20050;-64
2023/08/21 14:02:43;;;;;;;3.22;0.70;;;;;;;;;;5090878;28;20119;-64
2023/08/21 14:05:10;;;;;;;3.90;0.70;;;;;;;;;;5091193;28;20039;-64
2023/08/21 14:07:36;;;;;;;3.20;0.80;;;;;;;;;;5091306;28;20048;-64
2023/08/21 14:10:04;;;;;;;3.90;0.80;;;;;;;;;;5091076;28;20037;-64
2023/08/21 14:12:31;;;;;;;5.18;0.85;;;;;;;;;;5090921;28;20052;-62
2023/08/21 14:14:58;;;;;;;6.10;1.23;;;;;;;;;;5091257;28;20046;-62
2023/08/21 14:17:24;;;;;;;4.03;0.98;;;;;;;;;;5089651;28;20048;-62
2023/08/21 14:19:50;;;;;;;5.03;1.15;;;;;;;;;;5090568;28;20120;-62
2023/08/21 14:22:16;;;;;;;3.17;1.08;;;;;;;;;;5091109;28;20115;-63
2023/08/21 14:24:42;;;;;;;3.40;0.95;;;;;;;;;;5090689;28;20033;-62
2023/08/21 14:27:09;;;;;;;4.05;1.10;;;;;;;;;;5091137;28;20040;-63
2023/08/21 14:29:35;;;;;;;4.68;0.95;;;;;;;;;;5091348;28;20113;-62
2023/08/21 14:32:01;;;;;;;4.03;0.95;;;;;;;;;;5090747;28;20051;-63
2023/08/21 14:34:27;;;;;;;3.85;1.23;;;;;;;;;;5089684;28;20055;-62
2023/08/21 14:36:56;;;;;;;5.13;1.20;;;;;;;;;;5090138;28;20378;-63
2023/08/21 14:39:22;;;;;;;3.10;0.90;;;;;;;;;;5090274;28;20036;-63